sensor_id;sensor_type;location;lat;lon;timestamp;pressure;altitude;pressure_sealevel;temperature;humidity
25430;BME280;13360;48.152;-1.788;2023-06-10T00:01:20;103532.47;;;21.29;100.00
25430;BME280;13360;48.152;-1.788;2023-06-10T00:03:49;103541.22;;;21.27;100.00
25430;BME280;13360;48.152;-1.788;2023-06-10T00:06:14;103538.41;;;21.27;100.00
25430;BME280;13360;48.152;-1.788;2023-06-10T00:08:40;103540.38;;;21.27;100.00
25430;BME280;13360;48.152;-1.788;2023-06-10T00:11:06;103539.53;;;21.26;100.00
25430;BME280;13360;48.152;-1.788;2023-06-10T00:13:31;103542.91;;;21.23;100.00
25430;BME280;13360;48.152;-1.788;2023-06-10T00:15:56;103546.63;;;21.24;100.00
25430;BME280;13360;48.152;-1.788;2023-06-10T00:18:22;103549.66;;;21.22;100.00
25430;BME280;13360;48.152;-1.788;2023-06-10T00:20:47;103546.84;;;21.22;100.00
25430;BME280;13360;48.152;-1.788;2023-06-10T00:23:13;103557.25;;;21.22;100.00
25430;BME280;13360;48.152;-1.788;2023-06-10T00:25:39;103555.28;;;21.22;100.00
25430;BME280;13360;48.152;-1.788;2023-06-10T00:28:04;103546.31;;;21.20;100.00
25430;BME280;13360;48.152;-1.788;2023-06-10T00:30:30;103554.75;;;21.20;100.00
25430;BME280;13360;48.152;-1.788;2023-06-10T00:32:55;103555.91;;;21.19;100.00
25430;BME280;13360;48.152;-1.788;2023-06-10T00:35:21;103563.19;;;21.20;100.00
25430;BME280;13360;48.152;-1.788;2023-06-10T00:37:46;103569.94;;;21.19;100.00
25430;BME280;13360;48.152;-1.788;2023-06-10T00:40:11;103571.09;;;21.18;100.00
25430;BME280;13360;48.152;-1.788;2023-06-10T00:42:37;103575.56;;;21.19;100.00
25430;BME280;13360;48.152;-1.788;2023-06-10T00:45:02;103573.91;;;21.18;100.00
25430;BME280;13360;48.152;-1.788;2023-06-10T00:47:28;103579.53;;;21.18;100.00
25430;BME280;13360;48.152;-1.788;2023-06-10T00:49:53;103580.34;;;21.19;100.00
25430;BME280;13360;48.152;-1.788;2023-06-10T00:52:19;103572.22;;;21.17;100.00
25430;BME280;13360;48.152;-1.788;2023-06-10T00:54:47;103590.75;;;21.18;100.00
25430;BME280;13360;48.152;-1.788;2023-06-10T00:57:12;103580.66;;;21.17;100.00
25430;BME280;13360;48.152;-1.788;2023-06-10T00:59:41;103577.53;;;21.19;100.00
25430;BME280;13360;48.152;-1.788;2023-06-10T01:02:06;103557.88;;;21.19;100.00
25430;BME280;13360;48.152;-1.788;2023-06-10T01:04:32;103564.63;;;21.18;100.00
25430;BME280;13360;48.152;-1.788;2023-06-10T01:07:06;103558.47;;;21.16;100.00
25430;BME280;13360;48.152;-1.788;2023-06-10T01:09:42;103542.22;;;21.13;100.00
25430;BME280;13360;48.152;-1.788;2023-06-10T01:14:35;103558.25;;;21.12;100.00
25430;BME280;13360;48.152;-1.788;2023-06-10T01:17:01;103550.97;;;21.11;100.00
25430;BME280;13360;48.152;-1.788;2023-06-10T01:19:28;103560.53;;;21.10;100.00
25430;BME280;13360;48.152;-1.788;2023-06-10T01:21:55;103574.56;;;21.10;100.00
25430;BME280;13360;48.152;-1.788;2023-06-10T01:24:20;103579.66;;;21.08;100.00
25430;BME280;13360;48.152;-1.788;2023-06-10T01:26:47;103574.88;;;21.09;100.00
25430;BME280;13360;48.152;-1.788;2023-06-10T01:29:17;103573.22;;;21.08;100.00
25430;BME280;13360;48.152;-1.788;2023-06-10T01:31:56;103589.75;;;21.09;100.00
25430;BME280;13360;48.152;-1.788;2023-06-10T01:34:25;103588.63;;;21.10;100.00
25430;BME280;13360;48.152;-1.788;2023-06-10T01:36:51;103576.03;;;21.08;100.00
25430;BME280;13360;48.152;-1.788;2023-06-10T01:39:18;103589.22;;;21.07;100.00
25430;BME280;13360;48.152;-1.788;2023-06-10T01:41:44;103587.56;;;21.06;100.00
25430;BME280;13360;48.152;-1.788;2023-06-10T01:44:10;103599.41;;;21.03;100.00
25430;BME280;13360;48.152;-1.788;2023-06-10T01:46:36;103614.28;;;21.04;100.00
25430;BME280;13360;48.152;-1.788;2023-06-10T01:49:01;103614.00;;;21.05;100.00
25430;BME280;13360;48.152;-1.788;2023-06-10T01:51:26;103613.44;;;21.03;100.00
25430;BME280;13360;48.152;-1.788;2023-06-10T01:53:52;103615.69;;;21.01;100.00
25430;BME280;13360;48.152;-1.788;2023-06-10T01:56:17;103619.94;;;20.98;100.00
25430;BME280;13360;48.152;-1.788;2023-06-10T01:58:44;103640.44;;;20.99;100.00
25430;BME280;13360;48.152;-1.788;2023-06-10T02:01:10;103630.34;;;20.98;100.00
25430;BME280;13360;48.152;-1.788;2023-06-10T02:03:35;103632.03;;;20.99;100.00
25430;BME280;13360;48.152;-1.788;2023-06-10T02:06:00;103628.69;;;20.97;100.00
25430;BME280;13360;48.152;-1.788;2023-06-10T02:08:26;103621.91;;;20.98;100.00
25430;BME280;13360;48.152;-1.788;2023-06-10T02:10:52;103623.06;;;20.97;100.00
25430;BME280;13360;48.152;-1.788;2023-06-10T02:13:17;103630.34;;;20.98;100.00
25430;BME280;13360;48.152;-1.788;2023-06-10T02:15:43;103623.91;;;20.97;100.00
25430;BME280;13360;48.152;-1.788;2023-06-10T02:18:08;103662.94;;;20.99;100.00
25430;BME280;13360;48.152;-1.788;2023-06-10T02:20:34;103702.03;;;20.95;100.00
25430;BME280;13360;48.152;-1.788;2023-06-10T02:22:59;103735.50;;;20.92;100.00
25430;BME280;13360;48.152;-1.788;2023-06-10T02:25:25;103746.22;;;20.90;100.00
25430;BME280;13360;48.152;-1.788;2023-06-10T02:27:50;103736.63;;;20.91;100.00
25430;BME280;13360;48.152;-1.788;2023-06-10T02:30:15;103729.88;;;20.92;100.00
25430;BME280;13360;48.152;-1.788;2023-06-10T02:32:40;103715.31;;;20.90;100.00
25430;BME280;13360;48.152;-1.788;2023-06-10T02:35:06;103706.03;;;20.89;100.00
25430;BME280;13360;48.152;-1.788;2023-06-10T02:37:31;103705.19;;;20.89;100.00
25430;BME280;13360;48.152;-1.788;2023-06-10T02:39:56;103698.75;;;20.88;100.00
25430;BME280;13360;48.152;-1.788;2023-06-10T02:42:22;103685.53;;;20.89;100.00
25430;BME280;13360;48.152;-1.788;2023-06-10T02:44:47;103674.84;;;20.91;100.00
25430;BME280;13360;48.152;-1.788;2023-06-10T02:47:12;103662.53;;;20.87;100.00
25430;BME280;13360;48.152;-1.788;2023-06-10T02:49:37;103648.78;;;20.85;100.00
25430;BME280;13360;48.152;-1.788;2023-06-10T02:52:03;103636.69;;;20.85;100.00
25430;BME280;13360;48.152;-1.788;2023-06-10T02:54:28;103633.06;;;20.84;100.00
25430;BME280;13360;48.152;-1.788;2023-06-10T02:56:53;103624.91;;;20.83;100.00
25430;BME280;13360;48.152;-1.788;2023-06-10T02:59:20;103627.72;;;20.83;100.00
25430;BME280;13360;48.152;-1.788;2023-06-10T03:01:46;103621.53;;;20.81;100.00
25430;BME280;13360;48.152;-1.788;2023-06-10T03:04:11;103622.38;;;20.81;100.00
25430;BME280;13360;48.152;-1.788;2023-06-10T03:06:38;103620.41;;;20.82;100.00
25430;BME280;13360;48.152;-1.788;2023-06-10T03:09:06;103609.16;;;20.82;100.00
25430;BME280;13360;48.152;-1.788;2023-06-10T03:11:32;103592.31;;;20.82;100.00
25430;BME280;13360;48.152;-1.788;2023-06-10T03:13:58;103593.19;;;20.82;100.00
25430;BME280;13360;48.152;-1.788;2023-06-10T03:16:23;103589.50;;;20.82;100.00
25430;BME280;13360;48.152;-1.788;2023-06-10T03:18:50;103574.94;;;20.80;100.00
25430;BME280;13360;48.152;-1.788;2023-06-10T03:21:15;103578.03;;;20.78;100.00
25430;BME280;13360;48.152;-1.788;2023-06-10T03:23:41;103577.19;;;20.78;100.00
25430;BME280;13360;48.152;-1.788;2023-06-10T03:26:06;103567.94;;;20.77;100.00
25430;BME280;13360;48.152;-1.788;2023-06-10T03:28:31;103567.94;;;20.77;100.00
25430;BME280;13360;48.152;-1.788;2023-06-10T03:30:57;103557.00;;;20.76;100.00
25430;BME280;13360;48.152;-1.788;2023-06-10T03:33:22;103552.53;;;20.75;100.00
25430;BME280;13360;48.152;-1.788;2023-06-10T03:35:48;103549.72;;;20.75;100.00
25430;BME280;13360;48.152;-1.788;2023-06-10T03:38:13;103559.28;;;20.74;100.00
25430;BME280;13360;48.152;-1.788;2023-06-10T03:40:38;103545.22;;;20.74;100.00
25430;BME280;13360;48.152;-1.788;2023-06-10T03:43:04;103539.63;;;20.74;100.00
25430;BME280;13360;48.152;-1.788;2023-06-10T03:45:29;103534.84;;;20.74;100.00
25430;BME280;13360;48.152;-1.788;2023-06-10T03:47:55;103532.31;;;20.73;100.00
25430;BME280;13360;48.152;-1.788;2023-06-10T03:50:21;103532.31;;;20.73;100.00
25430;BME280;13360;48.152;-1.788;2023-06-10T03:52:48;103532.31;;;20.73;100.00
25430;BME280;13360;48.152;-1.788;2023-06-10T03:55:13;103528.69;;;20.72;100.00
25430;BME280;13360;48.152;-1.788;2023-06-10T03:57:39;103526.72;;;20.73;100.00
25430;BME280;13360;48.152;-1.788;2023-06-10T04:00:04;103527.84;;;20.72;100.00
25430;BME280;13360;48.152;-1.788;2023-06-10T04:02:37;103532.31;;;20.73;100.00
25430;BME280;13360;48.152;-1.788;2023-06-10T04:05:02;103524.44;;;20.75;100.00
25430;BME280;13360;48.152;-1.788;2023-06-10T04:07:27;103524.44;;;20.75;100.00
25430;BME280;13360;48.152;-1.788;2023-06-10T04:09:53;103526.94;;;20.76;100.00
25430;BME280;13360;48.152;-1.788;2023-06-10T04:12:18;103518.59;;;20.71;100.00
25430;BME280;13360;48.152;-1.788;2023-06-10T04:14:44;103528.97;;;20.70;100.00
25430;BME280;13360;48.152;-1.788;2023-06-10T04:17:09;103524.81;;;20.68;100.00
25430;BME280;13360;48.152;-1.788;2023-06-10T04:19:35;103536.63;;;20.65;100.00
25430;BME280;13360;48.152;-1.788;2023-06-10T04:22:00;103545.59;;;20.67;100.00
25430;BME280;13360;48.152;-1.788;2023-06-10T04:24:26;103553.19;;;20.66;100.00
25430;BME280;13360;48.152;-1.788;2023-06-10T04:26:51;103549.53;;;20.66;100.00
25430;BME280;13360;48.152;-1.788;2023-06-10T04:29:16;103556.53;;;20.68;100.00
25430;BME280;13360;48.152;-1.788;2023-06-10T04:31:41;103550.91;;;20.68;100.00
25430;BME280;13360;48.152;-1.788;2023-06-10T04:34:07;103552.88;;;20.68;100.00
25430;BME280;13360;48.152;-1.788;2023-06-10T04:36:32;103558.44;;;20.73;100.00
25430;BME280;13360;48.152;-1.788;2023-06-10T04:38:58;103551.69;;;20.74;100.00
25430;BME280;13360;48.152;-1.788;2023-06-10T04:41:23;103549.19;;;20.73;100.00
25430;BME280;13360;48.152;-1.788;2023-06-10T04:43:49;103537.94;;;20.73;100.00
25430;BME280;13360;48.152;-1.788;2023-06-10T04:46:14;103530.34;;;20.73;100.00
25430;BME280;13360;48.152;-1.788;2023-06-10T04:48:39;103533.47;;;20.72;100.00
25430;BME280;13360;48.152;-1.788;2023-06-10T04:51:05;103535.44;;;20.71;100.00
25430;BME280;13360;48.152;-1.788;2023-06-10T04:53:32;103531.84;;;20.65;100.00
25430;BME280;13360;48.152;-1.788;2023-06-10T04:55:57;103544.84;;;20.56;100.00
25430;BME280;13360;48.152;-1.788;2023-06-10T04:58:23;103583.94;;;20.53;100.00
25430;BME280;13360;48.152;-1.788;2023-06-10T05:00:48;103607.53;;;20.52;100.00
25430;BME280;13360;48.152;-1.788;2023-06-10T05:03:13;103640.38;;;20.51;100.00
25430;BME280;13360;48.152;-1.788;2023-06-10T05:05:39;103682.50;;;20.51;100.00
25430;BME280;13360;48.152;-1.788;2023-06-10T05:08:04;103709.75;;;20.51;100.00
25430;BME280;13360;48.152;-1.788;2023-06-10T05:10:29;103738.66;;;20.51;100.00
25430;BME280;13360;48.152;-1.788;2023-06-10T05:12:56;103754.66;;;20.51;100.00
25430;BME280;13360;48.152;-1.788;2023-06-10T05:15:22;103781.91;;;20.50;100.00
25430;BME280;13360;48.152;-1.788;2023-06-10T05:17:48;103797.63;;;20.51;100.00
25430;BME280;13360;48.152;-1.788;2023-06-10T05:20:13;103808.03;;;20.51;100.00
25430;BME280;13360;48.152;-1.788;2023-06-10T05:22:38;103826.84;;;20.50;100.00
25430;BME280;13360;48.152;-1.788;2023-06-10T05:25:04;103843.69;;;20.50;100.00
25430;BME280;13360;48.152;-1.788;2023-06-10T05:27:29;103854.38;;;20.48;100.00
25430;BME280;13360;48.152;-1.788;2023-06-10T05:29:54;103865.31;;;20.50;100.00
25430;BME280;13360;48.152;-1.788;2023-06-10T05:32:20;103884.97;;;20.50;100.00
25430;BME280;13360;48.152;-1.788;2023-06-10T05:34:45;103905.47;;;20.50;100.00
25430;BME280;13360;48.152;-1.788;2023-06-10T05:37:10;103915.00;;;20.49;100.00
25430;BME280;13360;48.152;-1.788;2023-06-10T05:39:36;103926.78;;;20.51;100.00
25430;BME280;13360;48.152;-1.788;2023-06-10T05:42:05;103936.91;;;20.52;100.00
25430;BME280;13360;48.152;-1.788;2023-06-10T05:44:31;103943.94;;;20.50;100.00
25430;BME280;13360;48.152;-1.788;2023-06-10T05:46:56;103950.38;;;20.50;100.00
25430;BME280;13360;48.152;-1.788;2023-06-10T05:49:22;103956.00;;;20.50;100.00
25430;BME280;13360;48.152;-1.788;2023-06-10T05:51:47;103964.44;;;20.50;100.00
25430;BME280;13360;48.152;-1.788;2023-06-10T05:54:12;103980.16;;;20.51;100.00
25430;BME280;13360;48.152;-1.788;2023-06-10T05:56:37;103980.16;;;20.51;100.00
25430;BME280;13360;48.152;-1.788;2023-06-10T05:59:03;103997.00;;;20.51;100.00
25430;BME280;13360;48.152;-1.788;2023-06-10T06:01:28;103993.34;;;20.51;100.00
25430;BME280;13360;48.152;-1.788;2023-06-10T06:03:53;104007.38;;;20.51;100.00
25430;BME280;13360;48.152;-1.788;2023-06-10T06:06:18;104013.84;;;20.51;100.00
25430;BME280;13360;48.152;-1.788;2023-06-10T06:08:45;104027.88;;;20.51;100.00
25430;BME280;13360;48.152;-1.788;2023-06-10T06:11:10;104027.88;;;20.51;100.00
25430;BME280;13360;48.152;-1.788;2023-06-10T06:13:36;104036.88;;;20.53;100.00
25430;BME280;13360;48.152;-1.788;2023-06-10T06:16:01;104049.78;;;20.54;100.00
25430;BME280;13360;48.152;-1.788;2023-06-10T06:18:26;104060.16;;;20.54;100.00
25430;BME280;13360;48.152;-1.788;2023-06-10T06:20:51;104071.13;;;20.55;100.00
25430;BME280;13360;48.152;-1.788;2023-06-10T06:23:17;104074.75;;;20.56;100.00
25430;BME280;13360;48.152;-1.788;2023-06-10T06:25:42;104064.38;;;20.56;100.00
25430;BME280;13360;48.152;-1.788;2023-06-10T06:28:07;104068.88;;;20.57;100.00
25430;BME280;13360;48.152;-1.788;2023-06-10T06:30:34;104053.13;;;20.56;100.00
25430;BME280;13360;48.152;-1.788;2023-06-10T06:32:59;104061.56;;;20.56;100.00
25430;BME280;13360;48.152;-1.788;2023-06-10T06:35:25;104066.06;;;20.57;100.00
25430;BME280;13360;48.152;-1.788;2023-06-10T06:37:50;104075.31;;;20.58;100.00
25430;BME280;13360;48.152;-1.788;2023-06-10T06:40:15;104087.41;;;20.58;100.00
25430;BME280;13360;48.152;-1.788;2023-06-10T06:42:40;104091.59;;;20.61;100.00
25430;BME280;13360;48.152;-1.788;2023-06-10T06:45:06;104098.94;;;20.62;100.00
25430;BME280;13360;48.152;-1.788;2023-06-10T06:47:31;104106.22;;;20.63;100.00
25430;BME280;13360;48.152;-1.788;2023-06-10T06:49:56;104110.44;;;20.65;100.00
25430;BME280;13360;48.152;-1.788;2023-06-10T06:52:22;104105.66;;;20.66;100.00
25430;BME280;13360;48.152;-1.788;2023-06-10T06:54:47;104096.94;;;20.67;100.00
25430;BME280;13360;48.152;-1.788;2023-06-10T06:57:12;104087.38;;;20.68;100.00
25430;BME280;13360;48.152;-1.788;2023-06-10T06:59:38;104072.22;;;20.69;100.00
25430;BME280;13360;48.152;-1.788;2023-06-10T07:02:03;104067.16;;;20.72;100.00
25430;BME280;13360;48.152;-1.788;2023-06-10T07:04:28;104075.31;;;20.68;100.00
25430;BME280;13360;48.152;-1.788;2023-06-10T07:06:54;104101.44;;;20.63;100.00
25430;BME280;13360;48.152;-1.788;2023-06-10T07:09:19;104144.72;;;20.62;100.00
25430;BME280;13360;48.152;-1.788;2023-06-10T07:11:44;104171.06;;;20.61;100.00
25430;BME280;13360;48.152;-1.788;2023-06-10T07:14:09;104193.56;;;20.61;100.00
25430;BME280;13360;48.152;-1.788;2023-06-10T07:16:35;104212.66;;;20.59;100.00
25430;BME280;13360;48.152;-1.788;2023-06-10T07:19:00;104239.63;;;20.60;100.00
25430;BME280;13360;48.152;-1.788;2023-06-10T07:21:25;104254.78;;;20.59;100.00
25430;BME280;13360;48.152;-1.788;2023-06-10T07:23:50;104285.16;;;20.62;100.00
25430;BME280;13360;48.152;-1.788;2023-06-10T07:26:19;104315.75;;;20.64;100.00
25430;BME280;13360;48.152;-1.788;2023-06-10T07:28:44;104338.78;;;20.66;100.00
25430;BME280;13360;48.152;-1.788;2023-06-10T07:31:09;104360.44;;;20.70;100.00
25430;BME280;13360;48.152;-1.788;2023-06-10T07:33:37;104371.66;;;20.70;100.00
25430;BME280;13360;48.152;-1.788;2023-06-10T07:36:04;104387.13;;;20.73;100.00
25430;BME280;13360;48.152;-1.788;2023-06-10T07:38:29;104398.63;;;20.77;100.00
25430;BME280;13360;48.152;-1.788;2023-06-10T07:40:54;104400.88;;;20.80;100.00
25430;BME280;13360;48.152;-1.788;2023-06-10T07:43:19;104406.50;;;20.80;100.00
25430;BME280;13360;48.152;-1.788;2023-06-10T07:45:45;104406.81;;;20.83;100.00
25430;BME280;13360;48.152;-1.788;2023-06-10T07:48:10;104415.50;;;20.82;100.00
25430;BME280;13360;48.152;-1.788;2023-06-10T07:50:36;104424.22;;;20.85;100.00
25430;BME280;13360;48.152;-1.788;2023-06-10T07:53:01;104443.06;;;20.90;100.00
25430;BME280;13360;48.152;-1.788;2023-06-10T07:55:27;104443.06;;;20.90;100.00
25430;BME280;13360;48.152;-1.788;2023-06-10T07:57:52;104445.31;;;20.93;100.00
25430;BME280;13360;48.152;-1.788;2023-06-10T08:00:18;104456.56;;;20.93;100.00
25430;BME280;13360;48.152;-1.788;2023-06-10T08:02:43;104459.66;;;20.96;100.00
25430;BME280;13360;48.152;-1.788;2023-06-10T08:05:08;104477.63;;;20.95;100.00
25430;BME280;13360;48.152;-1.788;2023-06-10T08:07:34;104484.66;;;20.98;100.00
25430;BME280;13360;48.152;-1.788;2023-06-10T08:10:00;104491.97;;;20.99;100.00
25430;BME280;13360;48.152;-1.788;2023-06-10T08:12:25;104497.63;;;21.04;100.00
25430;BME280;13360;48.152;-1.788;2023-06-10T08:14:50;104505.50;;;21.12;100.00
25430;BME280;13360;48.152;-1.788;2023-06-10T08:17:16;104496.50;;;21.20;100.00
25430;BME280;13360;48.152;-1.788;2023-06-10T08:19:41;104477.16;;;21.24;100.00
25430;BME280;13360;48.152;-1.788;2023-06-10T08:22:09;104463.59;;;21.21;100.00
25430;BME280;13360;48.152;-1.788;2023-06-10T08:24:35;104449.25;;;21.22;100.00
25430;BME280;13360;48.152;-1.788;2023-06-10T08:27:00;104440.88;;;21.27;100.00
25430;BME280;13360;48.152;-1.788;2023-06-10T08:29:25;104434.72;;;21.25;100.00
25430;BME280;13360;48.152;-1.788;2023-06-10T08:31:50;104417.00;;;21.25;100.00
25430;BME280;13360;48.152;-1.788;2023-06-10T08:34:16;104416.16;;;21.24;100.00
25430;BME280;13360;48.152;-1.788;2023-06-10T08:36:43;104407.66;;;21.19;100.00
25430;BME280;13360;48.152;-1.788;2023-06-10T08:39:08;104422.84;;;21.18;100.00
25430;BME280;13360;48.152;-1.788;2023-06-10T08:41:35;104426.78;;;21.17;100.00
25430;BME280;13360;48.152;-1.788;2023-06-10T08:44:06;104434.66;;;21.20;100.00
25430;BME280;13360;48.152;-1.788;2023-06-10T08:46:33;104435.25;;;21.27;100.00
25430;BME280;13360;48.152;-1.788;2023-06-10T08:48:59;104428.53;;;21.28;100.00
25430;BME280;13360;48.152;-1.788;2023-06-10T08:51:27;104431.31;;;21.34;100.00
25430;BME280;13360;48.152;-1.788;2023-06-10T08:53:54;104427.09;;;21.36;100.00
25430;BME280;13360;48.152;-1.788;2023-06-10T08:56:23;104421.47;;;21.36;100.00
25430;BME280;13360;48.152;-1.788;2023-06-10T08:58:51;104425.69;;;21.34;100.00
25430;BME280;13360;48.152;-1.788;2023-06-10T09:01:17;104429.34;;;21.34;100.00
25430;BME280;13360;48.152;-1.788;2023-06-10T09:03:43;104429.91;;;21.36;100.00
25430;BME280;13360;48.152;-1.788;2023-06-10T09:06:08;104434.41;;;21.37;100.00
25430;BME280;13360;48.152;-1.788;2023-06-10T09:08:34;104432.44;;;21.38;100.00
25430;BME280;13360;48.152;-1.788;2023-06-10T09:11:02;104447.06;;;21.40;100.00
25430;BME280;13360;48.152;-1.788;2023-06-10T09:13:27;104447.63;;;21.42;100.00
25430;BME280;13360;48.152;-1.788;2023-06-10T09:15:53;104443.41;;;21.44;100.00
25430;BME280;13360;48.152;-1.788;2023-06-10T09:18:21;104450.44;;;21.47;100.00
25430;BME280;13360;48.152;-1.788;2023-06-10T09:20:46;104451.00;;;21.49;100.00
25430;BME280;13360;48.152;-1.788;2023-06-10T09:23:12;104447.63;;;21.52;100.00
25430;BME280;13360;48.152;-1.788;2023-06-10T09:25:37;104456.34;;;21.50;100.00
25430;BME280;13360;48.152;-1.788;2023-06-10T09:28:03;104462.81;;;21.46;100.00
25430;BME280;13360;48.152;-1.788;2023-06-10T09:30:32;104466.19;;;21.48;100.00
25430;BME280;13360;48.152;-1.788;2023-06-10T09:33:02;104488.97;;;21.51;100.00
25430;BME280;13360;48.152;-1.788;2023-06-10T09:35:28;104510.91;;;21.59;100.00
25430;BME280;13360;48.152;-1.788;2023-06-10T09:37:58;104547.22;;;21.76;100.00
25430;BME280;13360;48.152;-1.788;2023-06-10T09:40:23;104576.75;;;21.94;100.00
25430;BME280;13360;48.152;-1.788;2023-06-10T09:42:55;104564.94;;;21.92;100.00
25430;BME280;13360;48.152;-1.788;2023-06-10T09:45:21;104539.88;;;21.90;100.00
25430;BME280;13360;48.152;-1.788;2023-06-10T09:47:47;104549.16;;;22.01;100.00
25430;BME280;13360;48.152;-1.788;2023-06-10T09:50:13;104549.19;;;22.11;100.00
25430;BME280;13360;48.152;-1.788;2023-06-10T09:52:38;104539.91;;;22.11;100.00
25430;BME280;13360;48.152;-1.788;2023-06-10T09:55:04;104506.94;;;21.96;100.00
25430;BME280;13360;48.152;-1.788;2023-06-10T09:57:32;104490.94;;;21.86;100.00
25430;BME280;13360;48.152;-1.788;2023-06-10T09:59:58;104478.25;;;21.79;100.00
25430;BME280;13360;48.152;-1.788;2023-06-10T10:02:24;104465.34;;;21.73;100.00
25430;BME280;13360;48.152;-1.788;2023-06-10T10:04:49;104457.75;;;21.68;100.00
25430;BME280;13360;48.152;-1.788;2023-06-10T10:07:15;104458.28;;;21.65;100.00
25430;BME280;13360;48.152;-1.788;2023-06-10T10:09:41;104459.41;;;21.64;100.00
25430;BME280;13360;48.152;-1.788;2023-06-10T10:12:09;104457.72;;;21.63;100.00
25430;BME280;13360;48.152;-1.788;2023-06-10T10:14:35;104462.50;;;21.63;100.00
25430;BME280;13360;48.152;-1.788;2023-06-10T10:17:01;104461.09;;;21.65;100.00
25430;BME280;13360;48.152;-1.788;2023-06-10T10:19:28;104454.38;;;21.66;100.00
25430;BME280;13360;48.152;-1.788;2023-06-10T10:21:58;104455.22;;;21.67;100.00
25430;BME280;13360;48.152;-1.788;2023-06-10T10:24:35;104448.75;;;21.66;100.00
25430;BME280;13360;48.152;-1.788;2023-06-10T10:27:02;104445.34;;;21.64;100.00
25430;BME280;13360;48.152;-1.788;2023-06-10T10:29:33;104446.47;;;21.63;100.00
25430;BME280;13360;48.152;-1.788;2023-06-10T10:32:01;104447.31;;;21.64;100.00
25430;BME280;13360;48.152;-1.788;2023-06-10T10:34:30;104456.34;;;21.66;100.00
25430;BME280;13360;48.152;-1.788;2023-06-10T10:36:59;104460.56;;;21.68;100.00
25430;BME280;13360;48.152;-1.788;2023-06-10T10:39:25;104469.56;;;21.70;100.00
25430;BME280;13360;48.152;-1.788;2023-06-10T10:41:53;104466.47;;;21.72;100.00
25430;BME280;13360;48.152;-1.788;2023-06-10T10:44:18;104479.97;;;21.70;100.00
25430;BME280;13360;48.152;-1.788;2023-06-10T10:46:45;104474.34;;;21.70;100.00
25430;BME280;13360;48.152;-1.788;2023-06-10T10:49:13;104463.09;;;21.70;100.00
25430;BME280;13360;48.152;-1.788;2023-06-10T10:51:52;104481.38;;;21.72;100.00
25430;BME280;13360;48.152;-1.788;2023-06-10T10:54:18;104480.81;;;21.75;100.00
25430;BME280;13360;48.152;-1.788;2023-06-10T10:59:55;104510.34;;;21.78;100.00
25430;BME280;13360;48.152;-1.788;2023-06-10T11:02:40;104543.56;;;21.91;100.00
25430;BME280;13360;48.152;-1.788;2023-06-10T11:05:07;104540.44;;;21.92;100.00
25430;BME280;13360;48.152;-1.788;2023-06-10T11:07:33;104516.81;;;21.94;100.00
25430;BME280;13360;48.152;-1.788;2023-06-10T11:10:09;104495.44;;;21.87;100.00
25430;BME280;13360;48.152;-1.788;2023-06-10T11:12:41;104499.38;;;21.86;100.00
25430;BME280;13360;48.152;-1.788;2023-06-10T11:15:07;104503.31;;;21.90;100.00
25430;BME280;13360;48.152;-1.788;2023-06-10T11:17:32;104509.78;;;21.91;100.00
25430;BME280;13360;48.152;-1.788;2023-06-10T11:20:00;104526.09;;;21.94;100.00
25430;BME280;13360;48.152;-1.788;2023-06-10T11:22:26;104520.72;;;21.98;100.00
25430;BME280;13360;48.152;-1.788;2023-06-10T11:24:51;104512.56;;;22.01;100.00
25430;BME280;13360;48.152;-1.788;2023-06-10T11:27:20;104514.25;;;22.02;100.00
25430;BME280;13360;48.152;-1.788;2023-06-10T11:29:55;104520.16;;;22.06;100.00
25430;BME280;13360;48.152;-1.788;2023-06-10T11:32:20;104537.91;;;22.06;100.00
25430;BME280;13360;48.152;-1.788;2023-06-10T11:34:51;104556.78;;;22.06;100.00
25430;BME280;13360;48.152;-1.788;2023-06-10T11:37:16;104584.66;;;22.17;100.00
25430;BME280;13360;48.152;-1.788;2023-06-10T11:39:42;104585.47;;;22.23;100.00
25430;BME280;13360;48.152;-1.788;2023-06-10T11:42:07;104555.63;;;22.22;100.00
25430;BME280;13360;48.152;-1.788;2023-06-10T11:44:33;104557.31;;;22.33;100.00
25430;BME280;13360;48.152;-1.788;2023-06-10T11:47:02;104578.41;;;22.41;100.00
25430;BME280;13360;48.152;-1.788;2023-06-10T11:49:28;104620.63;;;22.46;100.00
25430;BME280;13360;48.152;-1.788;2023-06-10T11:51:53;104613.88;;;22.47;100.00
25430;BME280;13360;48.152;-1.788;2023-06-10T11:54:18;104623.19;;;22.52;100.00
25430;BME280;13360;48.152;-1.788;2023-06-10T11:56:43;104654.16;;;22.58;100.00
25430;BME280;13360;48.152;-1.788;2023-06-10T11:59:09;104676.13;;;22.61;100.00
25430;BME280;13360;48.152;-1.788;2023-06-10T12:01:35;104703.16;;;22.72;100.00
25430;BME280;13360;48.152;-1.788;2023-06-10T12:04:08;104739.25;;;22.75;100.00
25430;BME280;13360;48.152;-1.788;2023-06-10T12:06:37;104741.50;;;22.73;100.00
25430;BME280;13360;48.152;-1.788;2023-06-10T12:09:03;104758.09;;;22.79;100.00
25430;BME280;13360;48.152;-1.788;2023-06-10T12:11:28;104751.91;;;22.88;100.00
25430;BME280;13360;48.152;-1.788;2023-06-10T12:13:53;104683.97;;;22.79;100.00
25430;BME280;13360;48.152;-1.788;2023-06-10T12:16:19;104609.88;;;22.68;100.00
25430;BME280;13360;48.152;-1.788;2023-06-10T12:18:46;104571.84;;;22.66;100.00
25430;BME280;13360;48.152;-1.788;2023-06-10T12:21:16;104527.63;;;22.61;100.00
25430;BME280;13360;48.152;-1.788;2023-06-10T12:23:59;104469.31;;;22.57;100.00
25430;BME280;13360;48.152;-1.788;2023-06-10T12:26:33;104427.56;;;22.64;100.00
25430;BME280;13360;48.152;-1.788;2023-06-10T12:28:58;104383.06;;;22.61;100.00
25430;BME280;13360;48.152;-1.788;2023-06-10T12:31:23;104411.19;;;22.71;100.00